sensor_id;sensor_type;location;lat;lon;timestamp;temperature;humidity
16907;DHT22;8570;52.380;4.654;2023-10-09T00:04:42;15.90;99.90
16907;DHT22;8570;52.380;4.654;2023-10-09T00:09:45;16.10;99.90
16907;DHT22;8570;52.380;4.654;2023-10-09T00:14:51;16.20;99.90
16907;DHT22;8570;52.380;4.654;2023-10-09T00:19:57;16.40;99.90
16907;DHT22;8570;52.380;4.654;2023-10-09T00:25:18;16.50;99.90
16907;DHT22;8570;52.380;4.654;2023-10-09T00:30:29;16.70;99.90
16907;DHT22;8570;52.380;4.654;2023-10-09T00:35:38;16.80;99.90
16907;DHT22;8570;52.380;4.654;2023-10-09T00:40:55;16.90;99.90
16907;DHT22;8570;52.380;4.654;2023-10-09T00:46:10;17.00;99.90
16907;DHT22;8570;52.380;4.654;2023-10-09T00:51:25;17.10;99.90
16907;DHT22;8570;52.380;4.654;2023-10-09T00:56:33;17.20;99.90
16907;DHT22;8570;52.380;4.654;2023-10-09T01:01:45;17.20;99.90
16907;DHT22;8570;52.380;4.654;2023-10-09T01:06:58;17.30;99.90
16907;DHT22;8570;52.380;4.654;2023-10-09T01:12:09;17.40;99.90
16907;DHT22;8570;52.380;4.654;2023-10-09T01:17:17;17.40;99.90
16907;DHT22;8570;52.380;4.654;2023-10-09T01:22:37;17.50;99.90
16907;DHT22;8570;52.380;4.654;2023-10-09T01:27:40;17.50;99.90
16907;DHT22;8570;52.380;4.654;2023-10-09T01:32:44;17.50;99.90
16907;DHT22;8570;52.380;4.654;2023-10-09T01:37:46;17.60;99.90
16907;DHT22;8570;52.380;4.654;2023-10-09T01:42:54;17.60;99.90
16907;DHT22;8570;52.380;4.654;2023-10-09T01:47:59;17.60;99.90
16907;DHT22;8570;52.380;4.654;2023-10-09T01:53:08;17.60;99.90
16907;DHT22;8570;52.380;4.654;2023-10-09T01:58:11;17.60;99.90
16907;DHT22;8570;52.380;4.654;2023-10-09T02:03:24;17.60;99.90
16907;DHT22;8570;52.380;4.654;2023-10-09T02:08:40;17.60;99.90
16907;DHT22;8570;52.380;4.654;2023-10-09T02:13:51;17.70;99.90
16907;DHT22;8570;52.380;4.654;2023-10-09T02:19:04;17.70;99.90
16907;DHT22;8570;52.380;4.654;2023-10-09T02:24:09;17.70;99.90
16907;DHT22;8570;52.380;4.654;2023-10-09T02:29:16;17.70;99.90
16907;DHT22;8570;52.380;4.654;2023-10-09T02:34:19;17.70;99.90
16907;DHT22;8570;52.380;4.654;2023-10-09T02:39:26;17.70;99.90
16907;DHT22;8570;52.380;4.654;2023-10-09T02:44:34;17.70;99.90
16907;DHT22;8570;52.380;4.654;2023-10-09T02:49:43;17.70;99.90
16907;DHT22;8570;52.380;4.654;2023-10-09T02:54:49;17.70;99.90
16907;DHT22;8570;52.380;4.654;2023-10-09T03:00:01;17.70;99.90
16907;DHT22;8570;52.380;4.654;2023-10-09T03:05:05;17.70;99.90
16907;DHT22;8570;52.380;4.654;2023-10-09T03:10:12;17.70;99.90
16907;DHT22;8570;52.380;4.654;2023-10-09T03:15:16;17.70;99.90
16907;DHT22;8570;52.380;4.654;2023-10-09T03:20:19;17.70;99.90
16907;DHT22;8570;52.380;4.654;2023-10-09T03:25:21;17.70;99.90
16907;DHT22;8570;52.380;4.654;2023-10-09T03:30:26;17.70;99.90
16907;DHT22;8570;52.380;4.654;2023-10-09T03:35:29;17.80;99.90
16907;DHT22;8570;52.380;4.654;2023-10-09T03:40:34;17.70;99.90
16907;DHT22;8570;52.380;4.654;2023-10-09T03:45:45;17.70;99.90
16907;DHT22;8570;52.380;4.654;2023-10-09T03:50:55;17.80;99.90
16907;DHT22;8570;52.380;4.654;2023-10-09T03:56:09;17.80;99.90
16907;DHT22;8570;52.380;4.654;2023-10-09T04:01:16;17.80;99.90
16907;DHT22;8570;52.380;4.654;2023-10-09T04:06:31;17.80;99.90
16907;DHT22;8570;52.380;4.654;2023-10-09T04:11:34;17.80;99.90
16907;DHT22;8570;52.380;4.654;2023-10-09T04:16:40;17.80;99.90
16907;DHT22;8570;52.380;4.654;2023-10-09T04:21:53;17.80;99.90
16907;DHT22;8570;52.380;4.654;2023-10-09T04:27:06;17.80;99.90
16907;DHT22;8570;52.380;4.654;2023-10-09T04:32:18;17.80;99.90
16907;DHT22;8570;52.380;4.654;2023-10-09T04:37:27;17.90;99.90
16907;DHT22;8570;52.380;4.654;2023-10-09T04:42:40;17.80;99.90
16907;DHT22;8570;52.380;4.654;2023-10-09T04:48:00;17.80;99.90
16907;DHT22;8570;52.380;4.654;2023-10-09T04:53:08;17.80;99.90
16907;DHT22;8570;52.380;4.654;2023-10-09T04:58:24;17.80;99.90
16907;DHT22;8570;52.380;4.654;2023-10-09T05:03:28;17.90;99.90
16907;DHT22;8570;52.380;4.654;2023-10-09T05:09:03;17.80;99.90
16907;DHT22;8570;52.380;4.654;2023-10-09T05:14:14;17.90;99.90
16907;DHT22;8570;52.380;4.654;2023-10-09T05:19:16;17.90;99.90
16907;DHT22;8570;52.380;4.654;2023-10-09T05:24:35;17.90;99.90
16907;DHT22;8570;52.380;4.654;2023-10-09T05:29:47;17.90;99.90
16907;DHT22;8570;52.380;4.654;2023-10-09T05:35:13;17.90;99.90
16907;DHT22;8570;52.380;4.654;2023-10-09T05:40:18;17.90;99.90
16907;DHT22;8570;52.380;4.654;2023-10-09T05:45:25;17.90;99.90
16907;DHT22;8570;52.380;4.654;2023-10-09T05:50:51;17.90;99.90
16907;DHT22;8570;52.380;4.654;2023-10-09T05:56:09;17.90;99.90
16907;DHT22;8570;52.380;4.654;2023-10-09T06:01:28;17.90;99.90
16907;DHT22;8570;52.380;4.654;2023-10-09T06:06:47;17.90;99.90
16907;DHT22;8570;52.380;4.654;2023-10-09T06:12:00;17.90;99.90
16907;DHT22;8570;52.380;4.654;2023-10-09T06:17:19;17.90;99.90
16907;DHT22;8570;52.380;4.654;2023-10-09T06:22:25;17.90;99.90
16907;DHT22;8570;52.380;4.654;2023-10-09T06:27:45;17.90;99.90
16907;DHT22;8570;52.380;4.654;2023-10-09T06:33:00;17.90;99.90
16907;DHT22;8570;52.380;4.654;2023-10-09T06:38:15;17.90;99.90
16907;DHT22;8570;52.380;4.654;2023-10-09T06:43:42;17.90;99.90
16907;DHT22;8570;52.380;4.654;2023-10-09T06:48:53;17.80;99.90
16907;DHT22;8570;52.380;4.654;2023-10-09T06:54:00;17.80;99.90
16907;DHT22;8570;52.380;4.654;2023-10-09T06:59:08;17.80;99.90
16907;DHT22;8570;52.380;4.654;2023-10-09T07:04:17;17.90;99.90
16907;DHT22;8570;52.380;4.654;2023-10-09T07:09:44;17.90;99.90
16907;DHT22;8570;52.380;4.654;2023-10-09T07:15:10;17.90;99.90
16907;DHT22;8570;52.380;4.654;2023-10-09T07:20:34;17.90;99.90
16907;DHT22;8570;52.380;4.654;2023-10-09T07:25:39;17.90;99.90
16907;DHT22;8570;52.380;4.654;2023-10-09T07:30:57;18.00;99.90
16907;DHT22;8570;52.380;4.654;2023-10-09T07:36:01;18.00;99.90
16907;DHT22;8570;52.380;4.654;2023-10-09T07:41:08;18.10;99.90
16907;DHT22;8570;52.380;4.654;2023-10-09T07:46:26;18.10;99.90
16907;DHT22;8570;52.380;4.654;2023-10-09T07:51:55;18.20;99.90
16907;DHT22;8570;52.380;4.654;2023-10-09T07:57:01;18.20;99.90
16907;DHT22;8570;52.380;4.654;2023-10-09T08:02:25;18.30;99.90
16907;DHT22;8570;52.380;4.654;2023-10-09T08:07:52;18.30;99.90
16907;DHT22;8570;52.380;4.654;2023-10-09T08:13:51;18.30;99.90
16907;DHT22;8570;52.380;4.654;2023-10-09T08:19:07;18.40;99.90
16907;DHT22;8570;52.380;4.654;2023-10-09T08:24:38;18.50;99.90
16907;DHT22;8570;52.380;4.654;2023-10-09T08:29:59;18.60;99.90
16907;DHT22;8570;52.380;4.654;2023-10-09T08:35:31;18.60;99.90
16907;DHT22;8570;52.380;4.654;2023-10-09T08:40:50;18.70;99.90
16907;DHT22;8570;52.380;4.654;2023-10-09T08:45:56;18.80;99.90
16907;DHT22;8570;52.380;4.654;2023-10-09T08:51:09;18.80;99.90
16907;DHT22;8570;52.380;4.654;2023-10-09T08:56:34;18.90;99.90
16907;DHT22;8570;52.380;4.654;2023-10-09T09:01:52;18.90;99.90
16907;DHT22;8570;52.380;4.654;2023-10-09T09:07:37;19.00;99.90
16907;DHT22;8570;52.380;4.654;2023-10-09T09:12:46;19.00;99.90
16907;DHT22;8570;52.380;4.654;2023-10-09T09:23:58;19.20;99.90
16907;DHT22;8570;52.380;4.654;2023-10-09T09:29:05;19.20;99.90
16907;DHT22;8570;52.380;4.654;2023-10-09T09:34:11;19.30;99.90
16907;DHT22;8570;52.380;4.654;2023-10-09T09:39:25;19.40;99.90
16907;DHT22;8570;52.380;4.654;2023-10-09T09:44:36;19.50;99.90
16907;DHT22;8570;52.380;4.654;2023-10-09T09:49:55;19.50;99.90
16907;DHT22;8570;52.380;4.654;2023-10-09T09:55:08;19.50;99.90
16907;DHT22;8570;52.380;4.654;2023-10-09T10:00:21;19.50;99.90
16907;DHT22;8570;52.380;4.654;2023-10-09T10:06:14;19.60;99.90
16907;DHT22;8570;52.380;4.654;2023-10-09T10:23:46;19.80;99.90
16907;DHT22;8570;52.380;4.654;2023-10-09T10:40:38;20.20;99.90
16907;DHT22;8570;52.380;4.654;2023-10-09T10:46:06;20.20;99.90
16907;DHT22;8570;52.380;4.654;2023-10-09T10:57:58;20.40;99.90
16907;DHT22;8570;52.380;4.654;2023-10-09T11:14:26;20.70;99.90
16907;DHT22;8570;52.380;4.654;2023-10-09T11:19:53;20.80;99.90
16907;DHT22;8570;52.380;4.654;2023-10-09T11:25:26;20.70;99.90
16907;DHT22;8570;52.380;4.654;2023-10-09T11:30:44;20.70;99.90
16907;DHT22;8570;52.380;4.654;2023-10-09T11:36:02;20.60;99.90
16907;DHT22;8570;52.380;4.654;2023-10-09T11:41:24;20.40;99.90
16907;DHT22;8570;52.380;4.654;2023-10-09T11:47:00;20.30;99.90
16907;DHT22;8570;52.380;4.654;2023-10-09T11:52:18;20.30;99.90
16907;DHT22;8570;52.380;4.654;2023-10-09T11:57:41;20.30;99.90
16907;DHT22;8570;52.380;4.654;2023-10-09T12:02:57;20.20;99.90
16907;DHT22;8570;52.380;4.654;2023-10-09T12:08:08;20.20;99.90
16907;DHT22;8570;52.380;4.654;2023-10-09T12:13:22;20.10;99.90
16907;DHT22;8570;52.380;4.654;2023-10-09T12:18:45;20.10;99.90
16907;DHT22;8570;52.380;4.654;2023-10-09T12:23:53;20.10;99.90
16907;DHT22;8570;52.380;4.654;2023-10-09T12:29:02;20.00;99.90
16907;DHT22;8570;52.380;4.654;2023-10-09T12:34:12;20.00;99.90
16907;DHT22;8570;52.380;4.654;2023-10-09T12:39:23;20.00;99.90
16907;DHT22;8570;52.380;4.654;2023-10-09T12:44:34;20.00;99.90
16907;DHT22;8570;52.380;4.654;2023-10-09T12:49:42;20.00;99.90
16907;DHT22;8570;52.380;4.654;2023-10-09T12:54:49;20.00;99.90
16907;DHT22;8570;52.380;4.654;2023-10-09T12:59:59;20.00;99.90
16907;DHT22;8570;52.380;4.654;2023-10-09T13:05:15;20.00;99.90
16907;DHT22;8570;52.380;4.654;2023-10-09T13:10:41;20.10;99.90
16907;DHT22;8570;52.380;4.654;2023-10-09T13:16:12;20.20;99.90
16907;DHT22;8570;52.380;4.654;2023-10-09T13:21:29;20.20;99.90
16907;DHT22;8570;52.380;4.654;2023-10-09T13:26:38;20.30;99.90
16907;DHT22;8570;52.380;4.654;2023-10-09T13:37:43;20.50;99.90
16907;DHT22;8570;52.380;4.654;2023-10-09T13:43:07;20.50;99.90
16907;DHT22;8570;52.380;4.654;2023-10-09T13:48:42;20.50;99.90
16907;DHT22;8570;52.380;4.654;2023-10-09T13:53:56;20.50;99.90
16907;DHT22;8570;52.380;4.654;2023-10-09T13:59:11;20.40;99.90
16907;DHT22;8570;52.380;4.654;2023-10-09T14:04:26;20.30;99.90
16907;DHT22;8570;52.380;4.654;2023-10-09T14:09:45;20.30;99.90
16907;DHT22;8570;52.380;4.654;2023-10-09T14:15:13;20.30;99.90
16907;DHT22;8570;52.380;4.654;2023-10-09T14:20:26;20.30;99.90
16907;DHT22;8570;52.380;4.654;2023-10-09T14:25:43;20.20;99.90
16907;DHT22;8570;52.380;4.654;2023-10-09T14:31:04;20.20;99.90
16907;DHT22;8570;52.380;4.654;2023-10-09T14:36:13;20.20;99.90
16907;DHT22;8570;52.380;4.654;2023-10-09T14:41:47;20.20;99.90
16907;DHT22;8570;52.380;4.654;2023-10-09T14:47:02;20.30;99.90
16907;DHT22;8570;52.380;4.654;2023-10-09T14:52:16;20.20;99.90
16907;DHT22;8570;52.380;4.654;2023-10-09T14:57:37;20.10;99.90
16907;DHT22;8570;52.380;4.654;2023-10-09T15:02:49;20.10;99.90
16907;DHT22;8570;52.380;4.654;2023-10-09T15:08:00;20.10;99.90
16907;DHT22;8570;52.380;4.654;2023-10-09T15:13:07;20.10;99.90
16907;DHT22;8570;52.380;4.654;2023-10-09T15:18:10;20.10;99.90
16907;DHT22;8570;52.380;4.654;2023-10-09T15:23:15;20.00;99.90
16907;DHT22;8570;52.380;4.654;2023-10-09T15:28:29;19.90;99.90
16907;DHT22;8570;52.380;4.654;2023-10-09T15:34:02;19.80;99.90
16907;DHT22;8570;52.380;4.654;2023-10-09T15:39:38;19.70;99.90
16907;DHT22;8570;52.380;4.654;2023-10-09T15:45:08;19.70;99.90
16907;DHT22;8570;52.380;4.654;2023-10-09T15:56:10;19.40;99.90
16907;DHT22;8570;52.380;4.654;2023-10-09T16:01:29;19.40;99.90
16907;DHT22;8570;52.380;4.654;2023-10-09T16:06:49;19.30;99.90
16907;DHT22;8570;52.380;4.654;2023-10-09T16:11:53;19.30;99.90
16907;DHT22;8570;52.380;4.654;2023-10-09T16:16:57;19.20;99.90
16907;DHT22;8570;52.380;4.654;2023-10-09T16:22:26;19.20;99.90
16907;DHT22;8570;52.380;4.654;2023-10-09T16:27:38;19.20;99.90
16907;DHT22;8570;52.380;4.654;2023-10-09T16:32:50;19.10;99.90
16907;DHT22;8570;52.380;4.654;2023-10-09T16:37:55;19.10;99.90
16907;DHT22;8570;52.380;4.654;2023-10-09T16:43:05;19.00;99.90
16907;DHT22;8570;52.380;4.654;2023-10-09T16:48:17;19.00;99.90
16907;DHT22;8570;52.380;4.654;2023-10-09T16:53:20;18.90;99.90
16907;DHT22;8570;52.380;4.654;2023-10-09T16:58:24;18.90;99.90
16907;DHT22;8570;52.380;4.654;2023-10-09T17:03:27;18.80;99.90
16907;DHT22;8570;52.380;4.654;2023-10-09T17:13:32;18.70;99.90
16907;DHT22;8570;52.380;4.654;2023-10-09T17:18:36;18.50;99.90
16907;DHT22;8570;52.380;4.654;2023-10-09T17:23:38;18.50;99.90
16907;DHT22;8570;52.380;4.654;2023-10-09T17:28:40;18.50;99.90
16907;DHT22;8570;52.380;4.654;2023-10-09T17:33:43;18.40;99.90
16907;DHT22;8570;52.380;4.654;2023-10-09T17:38:48;18.40;99.90
16907;DHT22;8570;52.380;4.654;2023-10-09T17:43:51;18.40;99.90
16907;DHT22;8570;52.380;4.654;2023-10-09T17:48:56;18.30;99.90
16907;DHT22;8570;52.380;4.654;2023-10-09T17:53:58;18.30;99.90
16907;DHT22;8570;52.380;4.654;2023-10-09T17:59:00;18.30;99.90
16907;DHT22;8570;52.380;4.654;2023-10-09T18:04:05;18.30;99.90
16907;DHT22;8570;52.380;4.654;2023-10-09T18:09:07;18.30;99.90
16907;DHT22;8570;52.380;4.654;2023-10-09T18:14:17;18.30;99.90
16907;DHT22;8570;52.380;4.654;2023-10-09T18:19:21;18.30;99.90
16907;DHT22;8570;52.380;4.654;2023-10-09T18:29:28;18.30;99.90
16907;DHT22;8570;52.380;4.654;2023-10-09T18:34:32;18.30;99.90
16907;DHT22;8570;52.380;4.654;2023-10-09T18:39:37;18.30;99.90
16907;DHT22;8570;52.380;4.654;2023-10-09T18:44:40;18.30;99.90
16907;DHT22;8570;52.380;4.654;2023-10-09T18:49:44;18.30;99.90
16907;DHT22;8570;52.380;4.654;2023-10-09T18:54:46;18.30;99.90
16907;DHT22;8570;52.380;4.654;2023-10-09T18:59:51;18.30;99.90
16907;DHT22;8570;52.380;4.654;2023-10-09T19:04:54;18.30;99.90
16907;DHT22;8570;52.380;4.654;2023-10-09T19:09:58;18.30;99.90
16907;DHT22;8570;52.380;4.654;2023-10-09T19:15:01;18.30;99.90
16907;DHT22;8570;52.380;4.654;2023-10-09T19:20:07;18.30;99.90
16907;DHT22;8570;52.380;4.654;2023-10-09T19:25:11;18.20;99.90
16907;DHT22;8570;52.380;4.654;2023-10-09T19:30:17;18.20;99.90
16907;DHT22;8570;52.380;4.654;2023-10-09T19:35:21;18.20;99.90
16907;DHT22;8570;52.380;4.654;2023-10-09T19:40:25;18.10;99.90
16907;DHT22;8570;52.380;4.654;2023-10-09T19:45:27;18.10;99.90
16907;DHT22;8570;52.380;4.654;2023-10-09T19:50:32;18.10;99.90
16907;DHT22;8570;52.380;4.654;2023-10-09T19:55:41;18.00;99.90
16907;DHT22;8570;52.380;4.654;2023-10-09T20:00:44;18.00;99.90
16907;DHT22;8570;52.380;4.654;2023-10-09T20:05:48;18.00;99.90
16907;DHT22;8570;52.380;4.654;2023-10-09T20:10:50;17.90;99.90
16907;DHT22;8570;52.380;4.654;2023-10-09T20:15:56;17.90;99.90
16907;DHT22;8570;52.380;4.654;2023-10-09T20:21:03;17.90;99.90
16907;DHT22;8570;52.380;4.654;2023-10-09T20:26:06;17.90;99.90
16907;DHT22;8570;52.380;4.654;2023-10-09T20:31:12;17.90;99.90
16907;DHT22;8570;52.380;4.654;2023-10-09T20:36:15;17.90;99.90
16907;DHT22;8570;52.380;4.654;2023-10-09T20:41:19;17.80;99.90
16907;DHT22;8570;52.380;4.654;2023-10-09T20:46:23;17.90;99.90
16907;DHT22;8570;52.380;4.654;2023-10-09T20:51:26;17.80;99.90
16907;DHT22;8570;52.380;4.654;2023-10-09T20:56:28;17.80;99.90
16907;DHT22;8570;52.380;4.654;2023-10-09T21:01:30;17.80;99.90
16907;DHT22;8570;52.380;4.654;2023-10-09T21:06:34;17.80;99.90
16907;DHT22;8570;52.380;4.654;2023-10-09T21:11:38;17.80;99.90
16907;DHT22;8570;52.380;4.654;2023-10-09T21:16:40;17.80;99.90
16907;DHT22;8570;52.380;4.654;2023-10-09T21:21:43;17.70;99.90
16907;DHT22;8570;52.380;4.654;2023-10-09T21:26:45;17.70;99.90
16907;DHT22;8570;52.380;4.654;2023-10-09T21:31:47;17.70;99.90
16907;DHT22;8570;52.380;4.654;2023-10-09T21:36:51;17.70;99.90
16907;DHT22;8570;52.380;4.654;2023-10-09T21:41:53;17.60;99.90
16907;DHT22;8570;52.380;4.654;2023-10-09T21:46:57;17.60;99.90
16907;DHT22;8570;52.380;4.654;2023-10-09T21:52:00;17.50;99.90
16907;DHT22;8570;52.380;4.654;2023-10-09T21:57:02;17.50;99.90
16907;DHT22;8570;52.380;4.654;2023-10-09T22:02:04;17.50;99.90
16907;DHT22;8570;52.380;4.654;2023-10-09T22:07:08;17.40;99.90
16907;DHT22;8570;52.380;4.654;2023-10-09T22:12:10;17.40;99.90
16907;DHT22;8570;52.380;4.654;2023-10-09T22:22:17;17.30;99.90
16907;DHT22;8570;52.380;4.654;2023-10-09T22:27:23;17.40;99.90
16907;DHT22;8570;52.380;4.654;2023-10-09T22:32:25;17.20;99.90
16907;DHT22;8570;52.380;4.654;2023-10-09T22:37:29;17.10;99.90
16907;DHT22;8570;52.380;4.654;2023-10-09T22:42:33;17.00;99.90
16907;DHT22;8570;52.380;4.654;2023-10-09T22:47:36;17.00;99.90
16907;DHT22;8570;52.380;4.654;2023-10-09T22:52:44;17.00;99.90
16907;DHT22;8570;52.380;4.654;2023-10-09T22:57:46;16.90;99.90
16907;DHT22;8570;52.380;4.654;2023-10-09T23:02:56;16.90;99.90
16907;DHT22;8570;52.380;4.654;2023-10-09T23:07:59;16.80;99.90
16907;DHT22;8570;52.380;4.654;2023-10-09T23:13:03;16.80;99.90
16907;DHT22;8570;52.380;4.654;2023-10-09T23:18:16;16.80;99.90
16907;DHT22;8570;52.380;4.654;2023-10-09T23:23:34;16.80;99.90
16907;DHT22;8570;52.380;4.654;2023-10-09T23:28:40;16.70;99.90
16907;DHT22;8570;52.380;4.654;2023-10-09T23:33:52;16.60;99.90
16907;DHT22;8570;52.380;4.654;2023-10-09T23:38:58;16.60;99.90
16907;DHT22;8570;52.380;4.654;2023-10-09T23:44:16;16.50;99.90
16907;DHT22;8570;52.380;4.654;2023-10-09T23:49:21;16.60;99.90
16907;DHT22;8570;52.380;4.654;2023-10-09T23:54:26;16.60;99.90
16907;DHT22;8570;52.380;4.654;2023-10-09T23:59:31;16.60;99.90
